Fenwick, MI (48834)

4:46 AM EST on December 05, 2016 (GMT -0500)
East Boyer Road, Fenwick | | Change Station

Elev 810 ft 43.17 °N, 85.04 °W | Updated 5 seconds ago

Overcast
Overcast
32.7 °F
Feels Like 27 °F
N
6.3
Wind Variable Wind from East
Gusts 7.1 mph

Today
High -- | Low -- °F
--% Chance of Precip.
Yesterday
High -- | Low -- °F
Precip. -- in
Pressure 29.89 in
Visibility 10.0 miles
Clouds Scattered Clouds 1800 ft
Mostly Cloudy 2500 ft
Overcast 2900 ft
Windchill 27 °F
Dew Point 29 °F
Humidity 87%
Rainfall 0.08 in
Snow Depth Not available.
7:56 AM 5:05 PM
Waxing Crescent, 30% visible
METAR KY70 050933Z AUTO 25012KT 10SM SCT018 BKN025 OVC029 01/00 A2989 RMK AO2 T00070000
Pressure 29.89 in
Visibility 10.0 miles
Clouds Scattered Clouds 1800 ft
Mostly Cloudy 2500 ft
Overcast 2900 ft
Windchill 27 °F
Dew Point 29 °F
Humidity 87%
Rainfall 0.08 in
Snow Depth Not available.
7:56 AM 5:05 PM
Waxing Crescent, 30% visible
METAR KY70 050933Z AUTO 25012KT 10SM SCT018 BKN025 OVC029 01/00 A2989 RMK AO2 T00070000

10-Day Weather Forecast

Almanac

Astronomy

Dec. 05, 2016 Rise Set
Actual Time
Civil Twilight
Nautical Twilight
Astronomical Twilight
Moon
Length of Visible Light
Length of Day
Tomorrow will be .
, % of the Moon is Illuminated

Today's Extremes

State Highs State Lows

Community

WunderPhotos

Upload Photos

1,955,775 photos uploaded!

WunderBlog® & News

Nearby

Air Quality

  Air Quality AQ Index Pollutant
Not available.

Snow Depth

Station Depth Elevation

Earthquake Activity

City Distance Mag. Time & Date
Minimum magnitude displayed is 2.5.

Coastal Water Temperatures

Place Temperature

Stations

Nearby Weather Stations

Station Location Temp. Windchill Dew Point Humidity Wind Precip. Elev Updated Type
                   

Watches & Warnings

There are currently no watches in effect.